Time;durP1;ratioP1;P1;durP2;ratioP2;P2;SDS_P1;SDS_P2;PMS_P1;PMS_P2;Temp;Humidity;BMP_temperature;BMP_pressure;BME280_temperature;BME280_humidity;BME280_pressure;Samples;Min_cycle;Max_cycle;Signal;HPM_P1;HPM_P2
2022/04/04 00:02:16;;;;;;;0.32;0.32;;;;;;;5.09;60.23;101410.69;5203404;28;20467;-79
2022/04/04 00:04:47;;;;;;;0.77;0.77;;;;;;;4.95;60.22;101416.69;5203240;28;20038;-76
2022/04/04 00:07:17;;;;;;;0.22;0.22;;;;;;;5.00;60.22;101404.56;5187386;28;20714;-77
2022/04/04 00:09:48;;;;;;;0.30;0.30;;;;;;;5.03;60.08;101404.59;5206671;28;20507;-78
2022/04/04 00:12:22;;;;;;;0.88;0.88;;;;;;;4.84;60.38;101402.72;5222193;28;20044;-77
2022/04/04 00:14:52;;;;;;;;;;;;;;;4.97;60.10;101403.66;5191349;28;20072;-77
2022/04/04 00:17:22;;;;;;;0.90;0.90;;;;;;;5.02;59.77;101402.84;5204508;28;19921;-77
2022/04/04 00:19:53;;;;;;;0.98;0.93;;;;;;;4.95;60.32;101397.63;5221406;28;20055;-78
2022/04/04 00:22:23;;;;;;;0.98;0.98;;;;;;;4.94;59.36;101393.28;5205848;28;20103;-78
2022/04/04 00:24:55;;;;;;;0.73;0.73;;;;;;;4.95;59.01;101388.06;5210162;28;20705;-78
2022/04/04 00:27:26;;;;;;;1.50;0.85;;;;;;;5.04;59.27;101389.88;5192572;28;20064;-79
2022/04/04 00:30:00;;;;;;;2.80;1.70;;;;;;;4.96;59.90;101382.00;5173357;28;20425;-76
2022/04/04 00:32:30;;;;;;;0.60;0.60;;;;;;;5.03;60.20;101382.94;5223274;28;20352;-79
2022/04/04 00:35:01;;;;;;;0.77;0.77;;;;;;;5.04;59.72;101375.13;5205259;28;20125;-78
2022/04/04 00:37:33;;;;;;;0.40;0.40;;;;;;;4.87;60.58;101372.44;5185882;28;20033;-79
2022/04/04 00:40:06;;;;;;;0.60;0.60;;;;;;;4.89;59.67;101381.09;5168978;28;20333;-78
2022/04/04 00:42:36;;;;;;;1.38;1.15;;;;;;;4.88;59.26;101366.34;5212268;28;20037;-77
2022/04/04 00:45:10;;;;;;;0.88;0.88;;;;;;;4.95;59.17;101364.66;5224051;28;20037;-77
2022/04/04 00:47:41;;;;;;;17.52;1.95;;;;;;;4.97;58.78;101367.25;5210477;28;20235;-76
2022/04/04 00:50:13;;;;;;;1.98;1.83;;;;;;;4.85;59.49;101362.84;5200619;28;20061;-78
2022/04/04 00:52:43;;;;;;;0.25;0.25;;;;;;;4.95;60.30;101364.66;5189303;28;20116;-77
2022/04/04 00:55:14;;;;;;;0.80;0.80;;;;;;;5.00;59.59;101362.94;5205654;28;20109;-78
2022/04/04 00:57:44;;;;;;;0.82;0.82;;;;;;;4.70;61.13;101358.44;5205618;28;20075;-79
2022/04/04 01:00:15;;;;;;;0.50;0.50;;;;;;;4.82;60.35;101368.06;5191100;28;20060;-78
2022/04/04 01:02:46;;;;;;;0.30;0.30;;;;;;;4.75;60.98;101361.94;5230948;28;20033;-78
2022/04/04 01:05:17;;;;;;;0.70;0.70;;;;;;;4.70;60.59;101359.28;5206026;28;20444;-79
2022/04/04 01:07:47;;;;;;;0.73;0.73;;;;;;;4.73;60.30;101358.44;5209425;28;20191;-79
2022/04/04 01:10:18;;;;;;;1.48;1.42;;;;;;;4.71;60.74;101348.03;5203173;28;20064;-78
2022/04/04 01:12:53;;;;;;;1.75;1.65;;;;;;;4.75;60.64;101341.13;5204778;28;20103;-77
2022/04/04 01:15:26;;;;;;;0.30;0.30;;;;;;;4.68;60.63;101335.00;5185993;28;20041;-76
2022/04/04 01:17:56;;;;;;;0.88;0.88;;;;;;;4.65;61.11;101334.13;5190328;28;20093;-79
2022/04/04 01:20:27;;;;;;;0.40;0.40;;;;;;;4.65;61.07;101334.13;5218405;28;20097;-79
2022/04/04 01:22:58;;;;;;;0.70;0.70;;;;;;;4.71;61.00;101332.44;5208031;28;20107;-79
2022/04/04 01:25:30;;;;;;;1.42;1.35;;;;;;;4.45;62.24;101331.38;5202576;28;20045;-79
2022/04/04 01:28:03;;;;;;;0.95;0.95;;;;;;;4.49;61.56;101327.94;5202631;28;20071;-76
2022/04/04 01:30:33;;;;;;;0.30;0.30;;;;;;;4.32;62.35;101323.50;5205310;28;20136;-79
2022/04/04 01:33:07;;;;;;;0.85;0.85;;;;;;;4.37;61.97;101313.13;5176124;28;20658;-78
2022/04/04 01:35:38;;;;;;;0.60;0.60;;;;;;;4.24;62.58;101317.34;5230473;28;20041;-78
2022/04/04 01:38:08;;;;;;;0.45;0.45;;;;;;;4.30;61.95;101312.19;5204738;28;20441;-78
2022/04/04 01:40:39;;;;;;;0.63;0.63;;;;;;;4.36;62.35;101307.06;5199903;28;20064;-75
2022/04/04 01:43:10;;;;;;;0.77;0.77;;;;;;;4.24;62.03;101302.63;5203309;28;20017;-76
2022/04/04 01:48:36;;;;;;;0.57;0.57;;;;;;;4.13;63.36;101298.19;5206668;28;20037;-78
2022/04/04 01:51:07;;;;;;;1.15;1.15;;;;;;;4.12;63.05;101291.25;5216902;28;20047;-78
2022/04/04 01:53:37;;;;;;;0.43;0.43;;;;;;;4.08;63.31;101293.84;5190843;28;20033;-78
2022/04/04 01:56:08;;;;;;;0.93;0.93;;;;;;;4.16;63.24;101293.91;5220118;28;20065;-77
2022/04/04 01:58:40;;;;;;;0.70;0.70;;;;;;;4.04;63.86;101289.47;5211018;28;20025;-77
2022/04/04 02:01:14;;;;;;;0.82;0.82;;;;;;;4.00;63.97;101282.53;5195923;28;20045;-77
2022/04/04 02:03:51;;;;;;;0.50;0.50;;;;;;;3.78;65.01;101281.44;5245603;28;20040;-78
2022/04/04 02:06:22;;;;;;;0.50;0.50;;;;;;;3.81;64.62;101280.59;5222881;28;20513;-79
2022/04/04 02:08:53;;;;;;;0.60;0.60;;;;;;;3.93;64.12;101271.19;5209797;28;20057;-77
2022/04/04 02:11:23;;;;;;;0.30;0.30;;;;;;;4.03;63.86;101271.28;5191297;28;20349;-77
2022/04/04 02:13:57;;;;;;;0.60;0.60;;;;;;;3.84;64.79;101270.25;5220898;28;20500;-78
2022/04/04 02:16:28;;;;;;;0.45;0.45;;;;;;;3.92;64.04;101271.19;5208147;28;20144;-78
2022/04/04 02:18:59;;;;;;;0.30;0.30;;;;;;;3.79;64.91;101265.00;5199276;28;20060;-76
2022/04/04 02:21:29;;;;;;;1.25;1.25;;;;;;;3.93;64.35;101255.63;5178522;28;20061;-79
2022/04/04 02:24:00;;;;;;;1.10;1.10;;;;;;;3.97;64.13;101253.91;5216358;28;20522;-78
2022/04/04 02:26:30;;;;;;;0.40;0.40;;;;;;;3.63;65.47;101253.59;5187949;28;20034;-77
2022/04/04 02:29:01;;;;;;;1.05;1.05;;;;;;;3.56;65.54;101244.88;5199441;28;20027;-77
2022/04/04 02:31:31;;;;;;;0.30;0.30;;;;;;;3.86;64.43;101245.16;5230590;28;20064;-77
2022/04/04 02:34:02;;;;;;;0.60;0.60;;;;;;;3.90;63.85;101239.16;5222731;28;20477;-80
2022/04/04 02:36:33;;;;;;;0.30;0.30;;;;;;;3.70;65.02;101232.03;5204016;28;20037;-80
2022/04/04 02:39:04;;;;;;;0.70;0.70;;;;;;;3.75;64.71;101222.59;5218622;28;20029;-78
2022/04/04 02:41:34;;;;;;;0.30;0.30;;;;;;;3.89;64.39;101224.44;5198269;28;20037;-77
2022/04/04 02:44:05;;;;;;;0.30;0.30;;;;;;;3.74;64.58;101226.03;5202929;28;20033;-79
2022/04/04 02:46:35;;;;;;;0.60;0.60;;;;;;;3.50;65.56;101215.41;5185860;28;20101;-80
2022/04/04 02:49:06;;;;;;;1.35;1.35;;;;;;;3.40;65.80;101223.09;5185644;28;20058;-77
2022/04/04 02:51:36;;;;;;;0.30;0.30;;;;;;;3.42;66.27;101205.84;5183765;28;20033;-78
2022/04/04 02:54:07;;;;;;;0.40;0.40;;;;;;;3.74;64.58;101202.69;5201745;28;20087;-80
2022/04/04 02:56:41;;;;;;;0.40;0.40;;;;;;;3.48;66.12;101194.63;5168493;28;20117;-79
2022/04/04 02:59:12;;;;;;;0.95;0.95;;;;;;;3.30;66.34;101200.50;5197101;28;20037;-79
2022/04/04 03:01:48;;;;;;;0.30;0.30;;;;;;;3.20;66.95;101193.47;5218321;28;20045;-79
2022/04/04 03:04:19;;;;;;;0.98;0.88;;;;;;;3.20;66.93;101188.28;5216982;28;20056;-79
2022/04/04 03:06:50;;;;;;;0.73;0.73;;;;;;;3.12;66.98;101183.88;5206761;28;20669;-79
2022/04/04 03:09:20;;;;;;;0.60;0.60;;;;;;;3.26;66.61;101178.00;5217770;28;20124;-79
2022/04/04 03:11:50;;;;;;;0.90;0.90;;;;;;;3.29;66.13;101172.81;5199509;28;20425;-79
2022/04/04 03:14:21;;;;;;;0.30;0.30;;;;;;;3.12;66.95;101173.50;5188521;28;20065;-78
2022/04/04 03:16:51;;;;;;;0.65;0.65;;;;;;;3.10;67.65;101172.63;5205354;28;20038;-80
2022/04/04 03:19:22;;;;;;;0.40;0.40;;;;;;;3.03;67.45;101170.81;5170971;28;20429;-79
2022/04/04 03:21:57;;;;;;;3.10;2.15;;;;;;;3.00;67.18;101170.81;5205745;28;20677;-78
2022/04/04 03:24:28;;;;;;;1.37;1.37;;;;;;;3.08;66.67;101158.78;5222109;28;20042;-79
2022/04/04 03:26:58;;;;;;;1.58;1.48;;;;;;;3.18;66.95;101154.56;5205791;28;20780;-79
2022/04/04 03:29:29;;;;;;;0.70;0.70;;;;;;;2.95;67.49;101151.72;5224968;28;20025;-80
2022/04/04 03:31:59;;;;;;;1.95;1.85;;;;;;;3.14;66.80;101148.47;5221254;28;20144;-79
2022/04/04 03:34:30;;;;;;;2.80;2.15;;;;;;;3.03;66.73;101144.88;5191946;28;20029;-78
2022/04/04 03:37:00;;;;;;;0.32;0.32;;;;;;;2.92;67.41;101149.09;5207301;28;20512;-77
2022/04/04 03:39:31;;;;;;;1.00;1.00;;;;;;;3.26;66.50;101137.34;5204207;28;20144;-76
2022/04/04 03:42:01;;;;;;;3.38;2.78;;;;;;;3.08;66.88;101143.25;5206293;28;20159;-75
2022/04/04 03:44:31;;;;;;;0.73;0.73;;;;;;;3.03;67.46;101139.72;5204577;28;20033;-75
2022/04/04 03:47:02;;;;;;;0.75;0.75;;;;;;;3.05;66.59;101135.41;5183827;28;20238;-77
2022/04/04 03:49:33;;;;;;;0.50;0.50;;;;;;;2.99;67.08;101127.56;5188955;28;20050;-76
2022/04/04 03:52:04;;;;;;;1.25;1.25;;;;;;;3.14;66.60;101122.53;5213772;28;20028;-77
2022/04/04 03:54:35;;;;;;;0.40;0.40;;;;;;;3.04;66.91;101114.66;5205849;28;20042;-78
2022/04/04 03:57:06;;;;;;;0.50;0.50;;;;;;;2.96;66.88;101111.97;5221697;28;20037;-77
2022/04/04 03:59:37;;;;;;;0.40;0.40;;;;;;;2.95;66.64;101102.47;5225668;28;20029;-78
2022/04/04 04:02:07;;;;;;;1.13;1.13;;;;;;;3.02;66.68;101098.22;5189411;28;20041;-78
2022/04/04 04:04:38;;;;;;;0.57;0.57;;;;;;;3.06;65.98;101093.09;5199898;28;20092;-75
2022/04/04 04:07:14;;;;;;;0.55;0.55;;;;;;;2.95;66.57;101092.09;5204734;28;20298;-77
2022/04/04 04:09:44;;;;;;;0.73;0.73;;;;;;;2.99;65.97;101092.13;5232572;28;20052;-78
2022/04/04 04:12:15;;;;;;;0.75;0.75;;;;;;;3.06;66.11;101087.03;5202105;28;20029;-76
2022/04/04 04:14:51;;;;;;;4.22;1.75;;;;;;;3.05;65.95;101080.97;5217481;28;20029;-76
2022/04/04 04:17:23;;;;;;;0.85;0.85;;;;;;;3.09;65.73;101077.56;5205632;28;20138;-76
2022/04/04 04:22:54;;;;;;;0.30;0.30;;;;;;;2.88;66.22;101073.03;5196863;28;20583;-76
2022/04/04 04:25:31;;;;;;;1.35;1.15;;;;;;;2.91;66.29;101067.88;5194610;28;20388;-76
2022/04/04 04:28:07;;;;;;;1.00;1.00;;;;;;;2.99;65.93;101068.81;5198733;28;20061;-76
2022/04/04 04:30:38;;;;;;;0.43;0.43;;;;;;;2.99;66.03;101063.63;5199944;28;20096;-77
2022/04/04 04:33:09;;;;;;;0.30;0.30;;;;;;;2.99;66.01;101060.19;5215455;28;20033;-77
2022/04/04 04:35:40;;;;;;;1.23;1.23;;;;;;;3.12;65.95;101051.66;5196106;28;20049;-77
2022/04/04 04:38:11;;;;;;;0.90;0.90;;;;;;;2.93;66.27;101049.75;5199174;28;20492;-76
2022/04/04 04:40:41;;;;;;;0.70;0.70;;;;;;;2.98;65.58;101038.56;5194472;28;20139;-78
2022/04/04 04:43:12;;;;;;;1.95;1.60;;;;;;;2.86;66.00;101047.94;5201037;28;20052;-77
2022/04/04 04:45:42;;;;;;;1.48;0.85;;;;;;;2.86;66.16;101034.97;5199936;28;20428;-77
2022/04/04 04:48:14;;;;;;;0.30;0.30;;;;;;;2.99;65.30;101036.84;5215504;28;20041;-76
2022/04/04 04:50:44;;;;;;;0.40;0.40;;;;;;;2.96;65.89;101034.22;5182047;28;20118;-77
2022/04/04 04:53:18;;;;;;;0.40;0.40;;;;;;;2.89;65.93;101024.66;5206882;28;20037;-78
2022/04/04 04:55:49;;;;;;;0.40;0.40;;;;;;;3.07;65.48;101030.00;5190305;28;20029;-78
2022/04/04 04:58:19;;;;;;;1.40;1.33;;;;;;;3.00;65.10;101020.44;5202678;28;20515;-77
2022/04/04 05:00:50;;;;;;;0.57;0.57;;;;;;;3.06;65.02;101017.91;5222372;28;20068;-77
2022/04/04 05:03:39;;;;;;;0.50;0.50;;;;;;;3.00;65.04;101004.88;5186830;28;20477;-77
2022/04/04 05:06:40;;;;;;;0.30;0.30;;;;;;;3.12;64.66;101004.97;5185975;22;20049;-77
2022/04/04 05:09:11;;;;;;;1.00;1.00;;;;;;;3.15;64.66;101002.41;5180056;28;20038;-79
2022/04/04 05:11:41;;;;;;;2.40;0.93;;;;;;;3.20;64.50;100996.38;5173611;28;20049;-78
2022/04/04 05:14:15;;;;;;;0.40;0.40;;;;;;;3.28;64.76;100995.59;5158196;28;20038;-78
2022/04/04 05:16:47;;;;;;;5.15;1.95;;;;;;;3.23;64.10;100997.28;5146685;28;20280;-79
2022/04/04 05:19:18;;;;;;;1.13;1.13;;;;;;;3.24;64.61;100992.97;5197579;23;20459;-77
2022/04/04 05:21:54;;;;;;;0.55;0.55;;;;;;;3.36;64.03;100993.03;5167159;28;20129;-76
2022/04/04 05:24:25;;;;;;;0.30;0.30;;;;;;;3.31;64.08;100982.63;5187228;28;20037;-76
2022/04/04 05:26:56;;;;;;;0.73;0.73;;;;;;;3.30;64.58;100985.22;5174227;28;20092;-77
2022/04/04 05:29:29;;;;;;;0.35;0.35;;;;;;;3.43;64.13;100987.03;5188024;28;20650;-76
2022/04/04 05:32:00;;;;;;;0.60;0.60;;;;;;;3.46;63.80;100983.63;5187524;28;20186;-76
2022/04/04 05:34:31;;;;;;;0.40;0.40;;;;;;;3.29;63.92;100986.97;5171386;28;20061;-76
2022/04/04 05:37:03;;;;;;;0.50;0.50;;;;;;;3.25;64.64;100990.38;5174223;28;20573;-76
2022/04/04 05:39:34;;;;;;;0.90;0.90;;;;;;;3.27;63.89;100974.81;5167893;28;20085;-77
2022/04/04 05:42:05;;;;;;;0.68;0.68;;;;;;;3.13;65.04;100975.59;5171493;28;20089;-77
2022/04/04 05:44:36;;;;;;;0.20;0.20;;;;;;;3.34;64.47;100974.03;5189889;28;20685;-76
2022/04/04 05:47:07;;;;;;;1.70;1.60;;;;;;;3.20;64.96;100966.16;5168376;28;20044;-77
2022/04/04 05:49:41;;;;;;;0.98;0.98;;;;;;;3.12;65.67;100965.22;5170896;28;20132;-76
2022/04/04 05:52:12;;;;;;;1.00;1.00;;;;;;;3.23;65.22;100949.75;5170059;28;20249;-76
2022/04/04 05:54:55;;;;;;;0.30;0.30;;;;;;;3.27;64.70;100956.66;5153989;28;20356;-76
2022/04/04 05:57:27;;;;;;;0.47;0.47;;;;;;;3.26;65.00;100954.97;5181428;28;20034;-77
2022/04/04 06:00:01;;;;;;;0.80;0.80;;;;;;;3.27;64.85;100954.06;5184687;28;20092;-77
2022/04/04 06:02:35;;;;;;;;;;;;;;;3.16;65.71;100954.00;5154257;28;20773;-77
2022/04/04 06:05:09;;;;;;;0.40;0.40;;;;;;;3.36;64.52;100946.34;5155094;28;19952;-77
2022/04/04 06:07:41;;;;;;;0.50;0.50;;;;;;;3.24;65.53;100946.28;5164596;28;20045;-76
2022/04/04 06:10:13;;;;;;;0.82;0.82;;;;;;;3.24;65.71;100939.38;5187384;28;20563;-76
2022/04/04 06:12:44;;;;;;;0.40;0.40;;;;;;;3.20;65.70;100940.22;5170439;28;20417;-77
2022/04/04 06:15:17;;;;;;;0.30;0.30;;;;;;;3.24;65.66;100935.91;5173329;28;20034;-77
2022/04/04 06:17:47;;;;;;;0.55;0.55;;;;;;;3.32;65.91;100923.88;5184710;28;20501;-77
2022/04/04 06:20:18;;;;;;;0.52;0.52;;;;;;;3.25;65.96;100927.28;5154905;28;20115;-77
2022/04/04 06:22:48;;;;;;;0.73;0.73;;;;;;;3.27;65.57;100915.19;5170459;28;20335;-77
2022/04/04 06:25:19;;;;;;;0.77;0.77;;;;;;;3.31;65.40;100914.34;5172512;28;20037;-78
2022/04/04 06:27:50;;;;;;;1.17;1.10;;;;;;;3.27;65.89;100910.00;5186257;28;20034;-76
2022/04/04 06:30:21;;;;;;;0.40;0.40;;;;;;;3.40;65.23;100906.63;5153642;28;20501;-76
2022/04/04 06:32:53;;;;;;;0.45;0.45;;;;;;;3.56;64.60;100901.50;5170539;28;20759;-77
2022/04/04 06:35:24;;;;;;;0.38;0.38;;;;;;;3.51;65.29;100904.09;5155477;28;20040;-76
2022/04/04 06:37:57;;;;;;;0.47;0.47;;;;;;;3.49;65.05;100899.75;5186483;28;20030;-77
2022/04/04 06:40:28;;;;;;;0.40;0.40;;;;;;;3.53;65.02;100893.69;5167597;28;20030;-76
2022/04/04 06:42:59;;;;;;;0.30;0.30;;;;;;;3.50;64.70;100880.75;5170937;28;20135;-76
2022/04/04 06:45:29;;;;;;;1.95;1.52;;;;;;;3.61;64.83;100871.25;5172694;28;20125;-76
2022/04/04 06:48:00;;;;;;;0.30;0.30;;;;;;;3.64;64.43;100871.28;5170212;28;20099;-76
2022/04/04 06:50:30;;;;;;;1.00;1.00;;;;;;;3.74;64.09;100870.47;5154101;28;20044;-76
2022/04/04 06:53:04;;;;;;;0.60;0.60;;;;;;;3.76;64.18;100858.31;5153328;28;20265;-76
2022/04/04 06:55:35;;;;;;;;;;;;;;;3.90;63.95;100855.78;5168651;28;20557;-79
2022/04/04 06:58:06;;;;;;;0.50;0.50;;;;;;;3.98;63.81;100845.44;5174617;28;19913;-76
2022/04/04 07:00:37;;;;;;;0.30;0.30;;;;;;;4.03;64.18;100846.28;5166123;28;20077;-78
2022/04/04 07:03:08;;;;;;;0.30;0.30;;;;;;;4.10;63.83;100842.84;5170715;28;20095;-77
2022/04/04 07:05:40;;;;;;;0.50;0.50;;;;;;;4.18;63.96;100840.25;5151180;28;20073;-77
2022/04/04 07:08:10;;;;;;;0.38;0.38;;;;;;;4.22;63.02;100820.34;5173365;28;20034;-77
2022/04/04 07:10:41;;;;;;;0.40;0.40;;;;;;;4.29;63.17;100824.69;5136803;28;20104;-78
2022/04/04 07:13:11;;;;;;;0.60;0.60;;;;;;;4.24;63.50;100809.09;5176083;28;20049;-78
2022/04/04 07:15:43;;;;;;;0.30;0.30;;;;;;;4.33;62.51;100808.25;5174901;28;20064;-77
2022/04/04 07:18:14;;;;;;;0.38;0.38;;;;;;;4.38;62.37;100816.91;5157194;28;20482;-77
2022/04/04 07:20:44;;;;;;;0.30;0.30;;;;;;;4.38;62.41;100806.50;5171549;28;20049;-77
2022/04/04 07:23:15;;;;;;;0.52;0.52;;;;;;;4.52;62.08;100803.03;5175280;28;20022;-77
2022/04/04 07:25:47;;;;;;;0.40;0.40;;;;;;;4.43;61.82;100793.50;5175984;28;20034;-77
2022/04/04 07:28:20;;;;;;;0.30;0.30;;;;;;;4.50;61.91;100799.59;5148789;28;20502;-77
2022/04/04 07:30:52;;;;;;;0.57;0.57;;;;;;;4.58;60.89;100792.66;5186443;28;20048;-77
2022/04/04 07:33:22;;;;;;;1.10;1.10;;;;;;;4.54;61.39;100786.59;5159263;28;20036;-77
2022/04/04 07:35:53;;;;;;;0.40;0.40;;;;;;;4.60;61.72;100790.88;5172225;28;20400;-77
2022/04/04 07:38:25;;;;;;;0.77;0.77;;;;;;;4.59;61.23;100783.09;5174450;28;20030;-77
2022/04/04 07:40:55;;;;;;;0.73;0.73;;;;;;;4.57;60.96;100783.97;5170499;28;20562;-78
2022/04/04 07:43:29;;;;;;;0.30;0.30;;;;;;;4.60;60.26;100784.84;5172494;28;20037;-76
2022/04/04 07:46:00;;;;;;;0.47;0.47;;;;;;;4.63;60.73;100770.09;5165287;28;20034;-76
2022/04/04 07:48:34;;;;;;;0.98;0.98;;;;;;;4.65;60.49;100767.50;5153934;28;20129;-76
2022/04/04 07:51:04;;;;;;;0.38;0.38;;;;;;;4.64;61.49;100791.75;5185847;28;20121;-76
2022/04/04 07:53:35;;;;;;;1.08;1.08;;;;;;;4.72;61.34;100762.28;5170532;28;20572;-76
2022/04/04 07:56:05;;;;;;;0.93;0.93;;;;;;;4.75;60.52;100752.75;5185427;28;20415;-75
2022/04/04 07:58:36;;;;;;;0.47;0.47;;;;;;;4.77;61.00;100753.59;5172932;28;20034;-76
2022/04/04 08:01:09;;;;;;;1.55;1.40;;;;;;;4.86;60.28;100750.97;5187048;28;20457;-77
2022/04/04 08:03:40;;;;;;;0.30;0.30;;;;;;;4.86;60.32;100746.66;5171669;28;20083;-76
2022/04/04 08:06:10;;;;;;;0.38;0.38;;;;;;;4.82;60.01;100737.13;5170218;28;20541;-75
2022/04/04 08:08:40;;;;;;;0.32;0.32;;;;;;;4.88;60.85;100750.09;5192937;28;20037;-76
2022/04/04 08:11:11;;;;;;;0.40;0.40;;;;;;;4.87;60.30;100734.50;5188538;28;20034;-77
2022/04/04 08:13:44;;;;;;;0.82;0.82;;;;;;;4.91;60.36;100728.44;5183953;28;20030;-76
2022/04/04 08:16:22;;;;;;;0.83;0.83;;;;;;;4.97;60.14;100725.81;5187009;28;20038;-76
2022/04/04 08:18:56;;;;;;;6.70;2.15;;;;;;;4.96;60.28;100729.28;5153116;28;20057;-77
2022/04/04 08:21:27;;;;;;;1.65;1.30;;;;;;;4.99;59.78;100724.09;5172217;28;20382;-76
2022/04/04 08:23:57;;;;;;;0.40;0.40;;;;;;;5.06;60.16;100718.84;5170545;28;20034;-77
2022/04/04 08:26:28;;;;;;;1.30;1.20;;;;;;;5.08;59.15;100710.16;5172139;28;20092;-76
2022/04/04 08:28:58;;;;;;;0.55;0.55;;;;;;;5.12;59.60;100708.41;5171198;28;20036;-77
2022/04/04 08:31:31;;;;;;;0.65;0.65;;;;;;;5.12;58.86;100700.59;5170853;28;20521;-77
2022/04/04 08:34:02;;;;;;;0.30;0.30;;;;;;;5.14;59.43;100704.06;5190362;28;20088;-76
2022/04/04 08:36:33;;;;;;;0.32;0.32;;;;;;;5.16;60.03;100699.72;5155367;28;20689;-76
2022/04/04 08:39:03;;;;;;;0.30;0.30;;;;;;;5.29;59.13;100697.94;5164869;28;20026;-76
2022/04/04 08:41:36;;;;;;;0.80;0.80;;;;;;;5.21;57.94;100690.16;5171745;28;20494;-75
2022/04/04 08:44:07;;;;;;;0.77;0.77;;;;;;;5.28;58.87;100686.66;5168976;28;20577;-76
2022/04/04 08:46:38;;;;;;;0.30;0.30;;;;;;;5.32;58.63;100677.97;5187009;28;20632;-76
2022/04/04 08:49:09;;;;;;;0.20;0.20;;;;;;;5.35;58.87;100672.72;5168503;28;20045;-77
2022/04/04 08:51:41;;;;;;;1.42;1.40;;;;;;;5.40;58.95;100671.84;5174446;28;20099;-76
2022/04/04 08:54:12;;;;;;;1.08;1.02;;;;;;;5.40;58.82;100656.22;5175816;28;20049;-76
2022/04/04 08:56:45;;;;;;;0.63;0.63;;;;;;;5.46;58.22;100662.22;5171190;28;20038;-76
2022/04/04 08:59:16;;;;;;;1.23;1.23;;;;;;;5.50;58.17;100668.28;5190084;28;20281;-77
2022/04/04 09:01:49;;;;;;;0.40;0.40;;;;;;;5.55;57.99;100653.50;5168875;28;20468;-76
2022/04/04 09:04:22;;;;;;;0.30;0.30;;;;;;;5.60;57.36;100643.06;5187581;28;20096;-76
2022/04/04 09:06:55;;;;;;;0.50;0.50;;;;;;;5.68;57.82;100639.50;5153376;28;20038;-76
2022/04/04 09:09:37;;;;;;;0.40;0.40;;;;;;;5.69;57.43;100645.59;5171520;28;20034;-76
2022/04/04 09:12:09;;;;;;;0.50;0.50;;;;;;;5.76;57.52;100630.78;5172880;28;20108;-76
2022/04/04 09:14:46;;;;;;;0.43;0.43;;;;;;;5.82;57.34;100620.31;5173184;28;20129;-76
2022/04/04 09:17:19;;;;;;;0.65;0.65;;;;;;;5.89;57.88;100616.78;5190335;28;20398;-76
2022/04/04 09:19:49;;;;;;;0.52;0.52;;;;;;;5.97;57.31;100612.38;5178008;28;20096;-75
2022/04/04 09:22:21;;;;;;;0.50;0.50;;;;;;;5.96;56.38;100613.25;5178607;28;20671;-75
2022/04/04 09:24:58;;;;;;;2.20;1.50;;;;;;;6.04;56.67;100612.34;5173755;28;20516;-75
2022/04/04 09:27:34;;;;;;;0.30;0.30;;;;;;;6.10;56.60;100601.84;5191962;28;20022;-76
2022/04/04 09:30:07;;;;;;;0.60;0.57;;;;;;;6.14;57.24;100595.75;5191139;28;20041;-75
2022/04/04 09:32:42;;;;;;;0.40;0.40;;;;;;;6.26;56.59;100579.94;5173820;28;20091;-76
2022/04/04 09:35:18;;;;;;;1.40;1.30;;;;;;;6.25;57.08;100585.19;5171387;28;20034;-76
2022/04/04 09:37:50;;;;;;;1.05;0.95;;;;;;;6.27;56.99;100570.41;5185450;28;20115;-76
2022/04/04 09:40:25;;;;;;;0.47;0.47;;;;;;;6.28;57.07;100583.41;5188652;28;20042;-76
2022/04/04 09:42:59;;;;;;;0.40;0.40;;;;;;;6.32;57.62;100580.78;5168301;28;20169;-76
2022/04/04 09:45:30;;;;;;;1.05;1.00;;;;;;;6.33;58.10;100554.69;5169937;28;20491;-76
2022/04/04 09:48:09;;;;;;;2.30;2.15;;;;;;;6.40;58.58;100566.75;5180582;28;20046;-75
2022/04/04 09:50:45;;;;;;;0.75;0.75;;;;;;;6.46;58.78;100555.41;5152903;28;20068;-77
2022/04/04 09:53:21;;;;;;;2.25;2.10;;;;;;;6.47;58.67;100562.34;5156516;28;20045;-76
2022/04/04 09:55:57;;;;;;;0.98;0.98;;;;;;;6.40;59.37;100548.53;5171066;28;20325;-76
2022/04/04 09:58:30;;;;;;;0.35;0.35;;;;;;;6.43;59.66;100556.31;5170832;28;20069;-75
2022/04/04 10:01:06;;;;;;;0.40;0.40;;;;;;;6.44;59.74;100549.34;5153365;28;20034;-76
2022/04/04 10:03:40;;;;;;;0.45;0.45;;;;;;;6.41;60.13;100551.97;5159117;28;20494;-76
2022/04/04 10:06:14;;;;;;;3.92;1.98;;;;;;;6.38;60.66;100541.59;5169280;28;20367;-76
2022/04/04 10:08:54;;;;;;;5.82;3.13;;;;;;;6.31;60.27;100535.59;5168603;28;20579;-76
2022/04/04 10:11:26;;;;;;;1.42;1.33;;;;;;;6.24;61.16;100545.22;5137934;28;20041;-76
2022/04/04 10:14:01;;;;;;;1.42;1.33;;;;;;;6.21;61.43;100540.06;5168876;28;20023;-76
2022/04/04 10:16:33;;;;;;;0.93;0.93;;;;;;;6.26;61.76;100533.06;5172478;28;20071;-76
2022/04/04 10:19:05;;;;;;;0.35;0.35;;;;;;;6.24;62.80;100529.59;5170616;28;20408;-76
2022/04/04 10:21:35;;;;;;;0.50;0.50;;;;;;;6.20;62.22;100522.72;5170671;28;20117;-76
2022/04/04 10:24:08;;;;;;;1.65;1.48;;;;;;;6.17;63.18;100524.50;5153109;28;20034;-76
2022/04/04 10:26:39;;;;;;;3.65;1.08;;;;;;;6.16;63.60;100525.38;5168808;28;20335;-76
2022/04/04 10:29:14;;;;;;;0.45;0.45;;;;;;;6.07;62.98;100522.00;5184879;28;20045;-76
2022/04/04 10:31:53;;;;;;;0.55;0.55;;;;;;;6.07;62.95;100521.16;5170284;28;20121;-76
2022/04/04 10:34:25;;;;;;;7.55;3.28;;;;;;;6.09;62.60;100528.06;5185574;28;20466;-76
2022/04/04 10:37:00;;;;;;;0.47;0.47;;;;;;;6.10;62.18;100515.88;5153040;28;20311;-76
2022/04/04 10:39:33;;;;;;;4.18;0.85;;;;;;;5.98;60.57;100509.03;5168792;28;20069;-76
2022/04/04 10:42:23;;;;;;;;;;;;;;;6.10;60.54;100510.66;5184283;28;20046;-77
2022/04/04 10:45:05;;;;;;;1.45;1.42;;;;;;;6.01;60.57;100500.34;5168462;28;20008;-77
2022/04/04 10:47:42;;;;;;;0.40;0.40;;;;;;;6.01;60.30;100503.84;5155241;28;20061;-76
2022/04/04 10:50:23;;;;;;;1.15;1.15;;;;;;;6.03;60.35;100493.41;5171350;28;20036;-76
2022/04/04 10:52:58;;;;;;;0.30;0.30;;;;;;;6.04;60.99;100506.38;5170331;28;20037;-77
2022/04/04 10:55:38;;;;;;;0.30;0.30;;;;;;;6.01;61.73;100489.94;5188970;28;20045;-76
2022/04/04 10:58:19;;;;;;;0.70;0.70;;;;;;;5.98;62.18;100490.81;5186716;28;20053;-76
2022/04/04 11:00:54;;;;;;;2.78;1.80;;;;;;;6.05;61.56;100494.25;5169348;28;20137;-76
2022/04/04 11:03:39;;;;;;;2.17;0.82;;;;;;;6.03;62.09;100475.16;5187592;28;20018;-76
2022/04/04 11:09:32;;;;;;;0.30;0.30;;;;;;;6.07;63.34;100489.88;5165641;28;20573;-77
2022/04/04 11:12:08;;;;;;;1.48;1.38;;;;;;;6.02;65.38;100476.03;5169696;28;20245;-76
2022/04/04 11:14:42;;;;;;;0.50;0.50;;;;;;;6.03;65.58;100477.75;5150738;28;20426;-77
2022/04/04 11:17:18;;;;;;;0.30;0.30;;;;;;;5.92;66.79;100476.13;5187394;28;20245;-77
2022/04/04 11:19:52;;;;;;;0.65;0.65;;;;;;;5.80;68.13;100478.88;5216450;22;20649;-79
2022/04/04 11:22:25;;;;;;;0.40;0.40;;;;;;;5.64;68.52;100473.84;5178639;28;20424;-78
2022/04/04 11:25:21;;;;;;;0.85;0.85;;;;;;;5.75;68.84;100465.91;5199879;28;20099;-78
2022/04/04 11:27:52;;;;;;;0.30;0.30;;;;;;;5.65;69.75;100457.34;5201230;28;20037;-78
2022/04/04 11:30:24;;;;;;;2.33;1.00;;;;;;;5.58;69.88;100488.66;5162639;28;20103;-81
2022/04/04 11:32:57;;;;;;;0.30;0.30;;;;;;;5.48;71.26;100474.88;5201046;28;20357;-80
2022/04/04 11:35:32;;;;;;;0.40;0.40;;;;;;;5.43;71.60;100481.84;5197453;28;20083;-79
2022/04/04 11:38:11;;;;;;;0.30;0.30;;;;;;;5.35;72.27;100464.56;5204515;28;20363;-82
2022/04/04 11:40:45;;;;;;;0.30;0.30;;;;;;;5.31;73.61;100473.31;5185555;28;20041;-81
2022/04/04 11:43:16;;;;;;;0.93;0.93;;;;;;;5.19;74.29;100473.41;5205373;28;20030;-78
2022/04/04 11:45:49;;;;;;;0.32;0.32;;;;;;;5.15;73.70;100466.50;5209702;28;20033;-78
2022/04/04 11:48:24;;;;;;;0.40;0.40;;;;;;;5.11;74.95;100463.06;5198453;28;20444;-81
2022/04/04 11:50:58;;;;;;;0.60;0.60;;;;;;;5.10;74.59;100452.66;5194338;28;20065;-82
2022/04/04 11:53:37;;;;;;;0.70;0.70;;;;;;;5.03;75.37;100455.31;5179199;28;20132;-81
2022/04/04 11:56:12;;;;;;;0.85;0.85;;;;;;;4.98;74.91;100448.44;5175933;28;20045;-80
2022/04/04 11:58:48;;;;;;;0.68;0.68;;;;;;;5.00;75.69;100451.88;5159901;28;20030;-81
2022/04/04 12:01:19;;;;;;;2.58;2.38;;;;;;;5.06;75.98;100440.59;5191871;28;20041;-81
2022/04/04 12:03:50;;;;;;;0.40;0.40;;;;;;;5.00;76.72;100446.69;5194237;28;20038;-82
2022/04/04 12:06:21;;;;;;;0.88;0.88;;;;;;;4.86;76.27;100432.09;5181118;28;20497;-80
2022/04/04 12:08:53;;;;;;;0.35;0.35;;;;;;;4.82;76.33;100443.38;5199321;28;20038;-81